Latest Weather Observations for Delamere

IDD60801

Issued at 10:05 am CST Tuesday 29 July 2014 (issued every 30 minutes, with the page automatically refreshed every 10 minutes)

About weather observations | Map of weather stations | Latest weather observations for NT | Other Formats
Station Details ID: 014949 Name: DELAMERE WEAPONS RANGE Lat: -15.74 Lon: 131.92 Height: 221.0 m
Data from the previous 72 hours. | See also: Recent months at Delamere
Date/Time
CST
Temp
°C
App
Temp
°C
Dew
Point
Rel
Hum
%
Delta-T
°C
Wind Press
QNH
hPa
Press
MSL
hPa
Rain
since 9 am
mm
Dir
 
Spd
km/h
Gust
km/h
Spd
kts
Gust
kts
29/10:00am 26.4 24.7 15.8 52 6.5 E 19 24 10 13 1019.4 - 0.0
29/09:30am 24.3 22.8 14.1 53 6.1 E 15 20 8 11 1019.4 - 0.0
29/09:00am 22.3 21.2 14.2 60 4.8 E 13 20 7 11 1019.3 1018.6 0.0
29/08:30am 20.9 19.7 14.1 65 4.0 E 13 20 7 11 1019.1 - 0.0
29/08:00am 19.4 18.0 12.2 63 4.1 ESE 11 15 6 8 1018.7 - 0.0
29/07:30am 18.2 16.8 10.8 62 4.0 ESE 9 13 5 7 1018.5 - 0.0
29/07:00am 17.6 16.0 10.2 62 4.0 E 9 11 5 6 1018.1 - 0.0
29/06:30am 17.7 16.4 9.8 60 4.2 E 7 9 4 5 1017.8 - 0.0
29/06:00am 18.0 16.6 9.6 58 4.5 ESE 7 11 4 6 1017.5 1016.9 0.0
29/05:30am 18.4 17.0 9.7 57 4.6 ESE 7 9 4 5 1017.3 - 0.0
29/05:00am 18.5 17.2 10.1 58 4.5 ESE 7 11 4 6 1017.1 - 0.0
29/04:30am 18.7 17.4 10.0 57 4.7 ESE 7 9 4 5 1016.8 - 0.0
29/04:00am 19.3 18.0 10.0 55 5.0 ESE 7 9 4 5 1016.7 - 0.0
29/03:30am 19.9 18.7 10.3 54 5.2 ESE 7 11 4 6 1016.8 - 0.0
29/03:00am 20.4 19.2 10.2 52 5.6 ESE 7 11 4 6 1016.8 1016.2 0.0
29/02:30am 21.1 19.5 10.3 50 5.9 ESE 9 13 5 7 1016.9 - 0.0
29/02:00am 21.9 20.0 10.4 48 6.3 ESE 11 15 6 8 1017.0 - 0.0
29/01:30am 22.3 20.4 10.5 47 6.5 ESE 11 17 6 9 1017.1 - 0.0
29/01:00am 22.7 20.8 10.5 46 6.8 E 11 19 6 10 1017.2 - 0.0
29/12:30am 23.4 21.1 10.5 44 7.2 ESE 13 20 7 11 1017.2 - 0.0
29/12:00am 24.1 21.0 10.4 42 7.6 SE 17 24 9 13 1016.9 1016.3 0.0
 
Date/Time
CST
Temp
°C
App
Temp
°C
Dew
Point
Rel
Hum
%
Delta-T
°C
Wind Press
QNH
hPa
Press
MSL
hPa
Rain
since 9 am
mm
Dir
 
Spd
km/h
Gust
km/h
Spd
kts
Gust
kts
28/11:30pm 24.4 21.5 11.0 43 7.6 SSE 17 24 9 13 1017.1 - 0.0
28/11:00pm 24.5 22.9 11.5 44 7.4 SE 11 17 6 9 1016.8 - 0.0
28/10:30pm 24.4 22.8 11.4 44 7.4 SE 11 13 6 7 1016.9 - 0.0
28/10:00pm 24.3 23.0 11.3 44 7.4 SE 9 11 5 6 1016.9 - 0.0
28/09:30pm 25.2 24.4 11.7 43 7.7 SE 7 11 4 6 1016.7 - 0.0
28/09:00pm 25.4 24.6 11.6 42 7.9 SE 7 11 4 6 1016.5 1015.8 0.0
28/08:30pm 25.7 24.9 11.8 42 8.0 SE 7 11 4 6 1016.2 - 0.0
28/08:00pm 26.2 25.1 11.9 41 8.3 SE 9 11 5 6 1015.9 - 0.0
28/07:30pm 27.0 26.4 12.3 40 8.6 ESE 7 9 4 5 1015.5 - 0.0
28/07:00pm 27.9 26.9 12.3 38 9.2 ESE 9 11 5 6 1015.1 - 0.0
28/06:30pm 29.0 28.0 12.4 36 9.8 ESE 9 13 5 7 1014.7 - 0.0
28/06:00pm 30.1 28.4 12.5 34 10.5 E 13 17 7 9 1014.5 1013.8 0.0
28/05:30pm 30.6 28.5 12.5 33 10.8 ESE 15 20 8 11 1014.1 - 0.0
28/05:00pm 30.9 28.7 14.5 37 10.1 E 19 28 10 15 1013.9 - 0.0
28/04:30pm 31.7 32.3 20.3 50 7.6 E 17 24 9 13 1013.7 - 0.0
28/04:00pm 31.7 31.9 17.6 43 9.1 E 13 28 7 15 1013.7 - 0.0
28/03:30pm 31.5 31.8 17.8 44 8.8 ENE 13 20 7 11 1013.9 - 0.0
28/03:00pm 30.9 30.2 16.5 42 9.1 E 15 28 8 15 1014.4 1013.7 0.0
28/02:30pm 30.5 29.5 16.5 43 8.8 ESE 17 24 9 13 1014.9 - 0.0
28/02:00pm 30.7 29.4 16.7 43 8.9 E 19 32 10 17 1015.5 - 0.0
28/01:30pm 30.9 28.5 15.3 38 9.7 E 22 32 12 17 1015.9 - 0.0
28/01:00pm 30.0 27.7 14.1 37 9.7 ESE 19 33 10 18 1016.4 - 0.0
28/12:30pm 29.6 26.8 14.2 39 9.4 ESE 22 28 12 15 1017.0 - 0.0
28/12:00pm 29.6 27.3 14.6 40 9.2 E 20 30 11 16 1017.7 1017.1 0.0
28/11:30am 28.8 26.9 15.7 45 8.1 E 20 26 11 14 1018.1 - 0.0
28/11:00am 27.4 25.0 15.4 48 7.4 ESE 22 32 12 17 1018.6 - 0.0
28/10:30am 27.0 25.6 16.6 53 6.5 E 19 28 10 15 1018.8 - 0.0
28/10:00am 25.7 24.6 16.3 56 5.8 E 17 24 9 13 1019.1 - 0.0
28/09:30am 25.1 24.0 16.3 58 5.4 E 17 26 9 14 1019.2 - 0.0
28/09:00am 23.5 22.8 15.3 60 4.9 E 13 19 7 10 1018.9 1018.3 0.0
28/08:30am 22.1 21.3 12.9 56 5.3 E 9 15 5 8 1018.6 - 0.0
28/08:00am 20.4 19.4 11.1 55 5.2 ESE 7 9 4 5 1018.4 - 0.0
28/07:30am 19.7 18.5 10.4 55 5.1 ESE 7 9 4 5 1018.2 - 0.0
28/07:00am 19.4 17.8 10.1 55 5.0 ESE 9 13 5 7 1017.9 - 0.0
28/06:30am 19.6 18.3 9.8 53 5.3 ESE 7 11 4 6 1017.6 - 0.0
28/06:00am 19.9 18.7 9.5 51 5.6 ESE 6 9 3 5 1017.3 1016.7 0.0
28/05:30am 20.2 18.3 9.2 49 5.9 ESE 9 15 5 8 1017.0 - 0.0
28/05:00am 20.6 18.4 9.2 48 6.1 E 11 15 6 8 1017.0 - 0.0
28/04:30am 20.9 18.7 9.5 48 6.2 E 11 15 6 8 1016.9 - 0.0
28/04:00am 21.0 18.8 9.3 47 6.3 E 11 15 6 8 1016.8 - 0.0
28/03:30am 21.1 19.2 9.0 46 6.5 ESE 9 11 5 6 1016.9 - 0.0
28/03:00am 21.7 19.8 8.9 44 6.9 ESE 9 11 5 6 1017.1 1016.5 0.0
28/02:30am 22.1 20.2 8.9 43 7.1 ESE 9 13 5 7 1017.3 - 0.0
28/02:00am 22.9 20.5 8.6 40 7.7 E 11 15 6 8 1017.3 - 0.0
28/01:30am 23.8 20.6 8.6 38 8.2 ESE 15 24 8 13 1017.6 - 0.0
28/01:00am 24.4 21.4 9.2 38 8.3 ESE 15 22 8 12 1017.8 - 0.0
28/12:30am 24.7 21.7 9.4 38 8.4 SE 15 20 8 11 1017.6 - 0.0
28/12:00am 25.3 21.6 9.6 37 8.7 SE 19 30 10 16 1017.6 1017.0 0.0
 
Date/Time
CST
Temp
°C
App
Temp
°C
Dew
Point
Rel
Hum
%
Delta-T
°C
Wind Press
QNH
hPa
Press
MSL
hPa
Rain
since 9 am
mm
Dir
 
Spd
km/h
Gust
km/h
Spd
kts
Gust
kts
27/11:30pm 25.8 23.0 10.0 37 8.8 SE 15 28 8 15 1017.5 - 0.0
27/11:00pm 25.8 23.0 10.0 37 8.8 SE 15 20 8 11 1017.6 - 0.0
27/10:30pm 25.8 24.3 10.4 38 8.7 SE 9 13 5 7 1017.4 - 0.0
27/10:00pm 25.9 24.0 10.5 38 8.7 SE 11 13 6 7 1017.4 - 0.0
27/09:30pm 26.3 25.3 10.9 38 8.8 SE 7 11 4 6 1017.2 - 0.0
27/09:00pm 27.0 25.7 11.1 37 9.1 SE 9 15 5 8 1017.0 1016.4 0.0
27/08:30pm 27.0 25.3 11.1 37 9.1 SSE 11 15 6 8 1016.9 - 0.0
27/08:00pm 26.8 25.8 10.9 37 9.1 SE 7 9 4 5 1016.5 - 0.0
27/07:30pm 26.9 25.9 11.0 37 9.1 SE 7 9 4 5 1016.2 - 0.0
27/07:00pm 27.4 26.4 11.0 36 9.4 SE 7 11 4 6 1015.8 - 0.0
27/06:30pm 28.4 27.0 11.0 34 10.0 ESE 9 15 5 8 1015.4 - 0.0
27/06:00pm 29.4 27.0 11.5 33 10.4 ESE 15 24 8 13 1015.3 1014.6 0.0
27/05:30pm 30.5 27.4 11.5 31 11.1 E 19 24 10 13 1015.0 - 0.0
27/05:00pm 30.4 27.8 11.9 32 10.9 ESE 17 24 9 13 1014.9 - 0.0
27/04:30pm 30.8 28.1 11.7 31 11.2 ESE 17 30 9 16 1014.7 - 0.0
27/04:00pm 31.2 28.2 12.1 31 11.3 E 19 28 10 15 1014.8 - 0.0
27/03:30pm 31.3 28.3 12.6 31 11.2 E 20 32 11 17 1015.1 - 0.0
27/03:00pm 30.5 26.9 12.9 34 10.5 ESE 24 39 13 21 1015.3 1014.6 0.0
27/02:30pm 31.1 28.9 13.4 34 10.7 E 17 28 9 15 1015.6 - 0.0
27/02:00pm 31.1 28.4 13.4 34 10.7 ESE 20 28 11 15 1016.2 - 0.0
27/01:30pm 29.6 26.6 12.5 35 10.1 E 20 35 11 19 1016.7 - 0.0
27/01:00pm 30.0 27.0 13.7 37 9.9 E 22 33 12 18 1017.3 - 0.0
27/12:30pm 30.1 28.1 15.4 41 9.1 E 20 30 11 16 1017.9 - 0.0
27/12:00pm 29.0 26.9 15.2 43 8.5 E 20 35 11 19 1018.5 1017.9 0.0
27/11:30am 28.1 26.0 14.7 44 8.2 ESE 19 26 10 14 1019.2 - 0.0
27/11:00am 27.5 25.7 14.5 45 7.9 ESE 17 30 9 16 1019.5 - 0.0
27/10:30am 26.8 25.6 16.1 52 6.6 ESE 17 26 9 14 1019.9 - 0.0
27/10:00am 25.4 23.5 15.7 55 5.9 ESE 20 28 11 15 1020.0 - 0.0
27/09:30am 25.0 23.2 15.9 57 5.6 ESE 20 32 11 17 1020.0 - 0.0
27/09:00am 24.0 22.4 16.0 61 4.9 ESE 19 30 10 16 1019.8 1019.1 0.0
27/08:30am 23.1 21.5 15.9 64 4.4 ESE 19 26 10 14 1019.7 - 0.0
27/08:00am 22.1 21.5 15.7 67 3.9 ESE 13 19 7 10 1019.5 - 0.0
27/07:30am 20.7 20.4 15.5 72 3.1 ESE 11 17 6 9 1019.2 - 0.0
27/07:00am 20.3 19.6 15.3 73 3.0 ESE 13 19 7 10 1018.8 - 0.0
27/06:30am 19.9 19.8 14.9 73 3.0 ESE 9 11 5 6 1018.3 - 0.0
27/06:00am 19.8 19.7 15.0 74 2.8 ESE 9 11 5 6 1018.1 1017.5 0.0
27/05:30am 19.6 19.8 14.8 74 2.8 SE 7 11 4 6 1017.9 - 0.0
27/05:00am 19.7 19.5 14.7 73 2.9 ESE 9 13 5 7 1017.9 - 0.0
27/04:30am 20.0 19.8 14.6 71 3.2 ESE 9 11 5 6 1017.8 - 0.0
27/04:00am 20.4 20.2 14.7 70 3.4 SE 9 13 5 7 1017.9 - 0.0
27/03:30am 20.6 20.3 14.5 68 3.6 ESE 9 13 5 7 1018.0 - 0.0
27/03:00am 20.9 20.6 14.5 67 3.8 SE 9 13 5 7 1018.0 1017.4 0.0
27/02:30am 20.9 20.9 14.1 65 4.0 ESE 7 11 4 6 1018.2 - 0.0
27/02:00am 21.2 20.7 13.9 63 4.3 ESE 9 11 5 6 1018.6 - 0.0
27/01:30am 21.6 21.1 13.8 61 4.6 ESE 9 13 5 7 1018.8 - 0.0
27/01:00am 21.9 21.6 14.3 62 4.5 ESE 9 11 5 6 1018.9 - 0.0
27/12:30am 22.8 22.0 14.1 58 5.1 ESE 11 15 6 8 1019.1 - 0.0
27/12:00am 23.4 22.5 13.8 54 5.6 ESE 11 15 6 8 1018.9 1018.3 0.0
 
Date/Time
CST
Temp
°C
App
Temp
°C
Dew
Point
Rel
Hum
%
Delta-T
°C
Wind Press
QNH
hPa
Press
MSL
hPa
Rain
since 9 am
mm
Dir
 
Spd
km/h
Gust
km/h
Spd
kts
Gust
kts
26/11:30pm 23.6 22.4 12.9 51 6.2 ESE 11 15 6 8 1018.8 - 0.0
26/11:00pm 23.4 22.0 12.1 49 6.5 SE 11 17 6 9 1018.8 - 0.0
26/10:30pm 23.7 22.8 11.4 46 7.0 E 7 9 4 5 1018.6 - 0.0
26/10:00pm 24.8 23.4 11.0 42 7.8 ESE 9 11 5 6 1018.4 - 0.0
26/09:30pm 25.5 24.2 11.3 41 8.1 ESE 9 11 5 6 1018.4 - 0.0
26/09:00pm 25.7 24.8 10.7 39 8.5 SE 6 9 3 5 1018.2 1017.6 0.0
26/08:30pm 26.4 25.4 10.9 38 8.8 ESE 7 11 4 6 1018.0 - 0.0
26/08:00pm 26.5 25.5 11.0 38 8.8 ESE 7 9 4 5 1017.5 - 0.0
26/07:30pm 26.0 24.8 10.2 37 8.9 ESE 7 7 4 4 1017.0 - 0.0
26/07:00pm 27.0 25.8 10.2 35 9.5 SE 7 9 4 5 1016.8 - 0.0
26/06:30pm 28.8 27.3 10.5 32 10.5 E 9 13 5 7 1016.4 - 0.0
26/06:00pm 29.8 26.7 10.4 30 11.1 ESE 17 26 9 14 1016.0 1015.3 0.0
26/05:30pm 30.6 27.7 11.1 30 11.4 ESE 17 24 9 13 1015.9 - 0.0
26/05:00pm 30.4 27.0 10.4 29 11.5 SE 19 32 10 17 1015.8 - 0.0
26/04:30pm 30.4 26.8 10.4 29 11.5 E 20 32 11 17 1015.8 - 0.0
26/04:00pm 31.3 27.9 10.6 28 12.0 E 19 28 10 15 1015.7 - 0.0
26/03:30pm 31.7 28.4 11.0 28 12.1 E 19 28 10 15 1015.5 - 0.0
26/03:00pm 31.1 27.6 11.0 29 11.7 E 20 28 11 15 1015.6 1014.9 0.0
26/02:30pm 30.9 27.1 11.3 30 11.5 E 22 35 12 19 1015.8 - 0.0
26/02:00pm 31.1 27.8 11.0 29 11.7 E 19 28 10 15 1016.2 - 0.0
26/01:30pm 30.0 27.2 15.3 41 9.1 SE 24 35 13 19 1016.6 - 0.0
26/01:00pm 29.7 26.2 13.5 37 9.8 ESE 24 43 13 23 1017.2 - 0.0
26/12:30pm 29.4 27.1 14.0 39 9.3 ESE 19 30 10 16 1018.0 - 0.0
26/12:00pm 28.7 25.8 14.1 40 8.8 E 22 35 12 19 1018.6 1018.0 0.0
26/11:30am 28.2 25.4 14.4 42 8.4 E 22 33 12 18 1019.1 - 0.0
26/11:00am 27.7 26.6 15.4 47 7.6 ENE 15 32 8 17 1019.4 - 0.0
26/10:30am 25.8 24.9 15.8 54 6.1 E 15 24 8 13 1019.7 - 0.0

Other Formats:

Comma delimited format used in spreadsheet applications
http://www.bom.gov.au/fwo/IDD60801/IDD60801.94225.axf

JavaScript Object Notation format (JSON) in row-major order
http://www.bom.gov.au/fwo/IDD60801/IDD60801.94225.json